sensor_id;sensor_type;location;lat;lon;timestamp;pressure;altitude;pressure_sealevel;temperature;humidity
47897;BME280;39629;51.400;5.494;2023-05-19T00:00:13;102462.50;;;8.34;100.00
47897;BME280;39629;51.400;5.494;2023-05-19T00:05:16;102466.75;;;8.29;100.00
47897;BME280;39629;51.400;5.494;2023-05-19T00:10:18;102468.66;;;8.34;100.00
47897;BME280;39629;51.400;5.494;2023-05-19T00:15:22;102464.34;;;8.37;100.00
47897;BME280;39629;51.400;5.494;2023-05-19T00:20:23;102458.59;;;8.21;100.00
47897;BME280;39629;51.400;5.494;2023-05-19T00:25:25;102457.00;;;8.25;100.00
47897;BME280;39629;51.400;5.494;2023-05-19T00:30:28;102459.50;;;8.22;100.00
47897;BME280;39629;51.400;5.494;2023-05-19T00:35:30;102447.34;;;8.24;100.00
47897;BME280;39629;51.400;5.494;2023-05-19T00:40:33;102445.50;;;8.21;100.00
47897;BME280;39629;51.400;5.494;2023-05-19T00:45:36;102432.28;;;8.18;100.00
47897;BME280;39629;51.400;5.494;2023-05-19T00:50:39;102430.31;;;8.11;100.00
47897;BME280;39629;51.400;5.494;2023-05-19T00:55:42;102427.47;;;8.05;100.00
47897;BME280;39629;51.400;5.494;2023-05-19T01:00:46;102432.66;;;8.03;100.00
47897;BME280;39629;51.400;5.494;2023-05-19T01:05:48;102425.53;;;7.99;100.00
47897;BME280;39629;51.400;5.494;2023-05-19T01:10:52;102439.19;;;7.89;100.00
47897;BME280;39629;51.400;5.494;2023-05-19T01:16:04;102437.13;;;7.80;100.00
47897;BME280;39629;51.400;5.494;2023-05-19T01:21:25;102429.44;;;7.84;100.00
47897;BME280;39629;51.400;5.494;2023-05-19T01:26:49;102431.75;;;7.75;100.00
47897;BME280;39629;51.400;5.494;2023-05-19T01:31:59;102432.00;;;7.83;100.00
47897;BME280;39629;51.400;5.494;2023-05-19T01:37:02;102435.09;;;7.71;100.00
47897;BME280;39629;51.400;5.494;2023-05-19T01:42:04;102438.00;;;7.55;100.00
47897;BME280;39629;51.400;5.494;2023-05-19T01:47:08;102435.25;;;7.50;100.00
47897;BME280;39629;51.400;5.494;2023-05-19T01:52:10;102433.25;;;7.43;100.00
47897;BME280;39629;51.400;5.494;2023-05-19T01:57:23;102421.81;;;7.41;100.00
47897;BME280;39629;51.400;5.494;2023-05-19T02:02:39;102420.53;;;7.29;100.00
47897;BME280;39629;51.400;5.494;2023-05-19T02:07:51;102424.53;;;7.20;100.00
47897;BME280;39629;51.400;5.494;2023-05-19T02:13:00;102413.97;;;7.17;100.00
47897;BME280;39629;51.400;5.494;2023-05-19T02:18:07;102415.63;;;7.14;100.00
47897;BME280;39629;51.400;5.494;2023-05-19T02:23:10;102418.03;;;7.08;100.00
47897;BME280;39629;51.400;5.494;2023-05-19T02:28:12;102410.06;;;7.05;100.00
47897;BME280;39629;51.400;5.494;2023-05-19T02:33:15;102410.59;;;6.96;100.00
47897;BME280;39629;51.400;5.494;2023-05-19T02:38:17;102403.56;;;6.95;100.00
47897;BME280;39629;51.400;5.494;2023-05-19T02:43:18;102407.81;;;6.92;100.00
47897;BME280;39629;51.400;5.494;2023-05-19T02:48:21;102406.75;;;6.87;100.00
47897;BME280;39629;51.400;5.494;2023-05-19T02:53:23;102399.63;;;6.82;100.00
47897;BME280;39629;51.400;5.494;2023-05-19T02:58:25;102400.34;;;6.78;100.00
47897;BME280;39629;51.400;5.494;2023-05-19T03:03:27;102407.06;;;6.72;100.00
47897;BME280;39629;51.400;5.494;2023-05-19T03:08:29;102408.47;;;6.63;100.00
47897;BME280;39629;51.400;5.494;2023-05-19T03:13:31;102395.19;;;6.57;100.00
47897;BME280;39629;51.400;5.494;2023-05-19T03:18:34;102399.59;;;6.58;100.00
47897;BME280;39629;51.400;5.494;2023-05-19T03:23:35;102408.91;;;6.52;100.00
47897;BME280;39629;51.400;5.494;2023-05-19T03:28:37;102413.16;;;6.50;100.00
47897;BME280;39629;51.400;5.494;2023-05-19T03:33:40;102405.66;;;6.36;100.00
47897;BME280;39629;51.400;5.494;2023-05-19T03:38:42;102409.16;;;6.37;100.00
47897;BME280;39629;51.400;5.494;2023-05-19T03:43:43;102421.84;;;6.27;100.00
47897;BME280;39629;51.400;5.494;2023-05-19T03:48:46;102426.97;;;6.24;100.00
47897;BME280;39629;51.400;5.494;2023-05-19T03:54:01;102432.41;;;6.29;100.00
47897;BME280;39629;51.400;5.494;2023-05-19T03:59:03;102438.34;;;6.25;100.00
47897;BME280;39629;51.400;5.494;2023-05-19T04:04:07;102422.59;;;6.23;100.00
47897;BME280;39629;51.400;5.494;2023-05-19T04:09:12;102429.00;;;6.31;100.00
47897;BME280;39629;51.400;5.494;2023-05-19T04:14:14;102428.00;;;6.28;100.00
47897;BME280;39629;51.400;5.494;2023-05-19T04:19:18;102426.69;;;6.39;100.00
47897;BME280;39629;51.400;5.494;2023-05-19T04:24:19;102424.13;;;6.41;100.00
47897;BME280;39629;51.400;5.494;2023-05-19T04:29:21;102429.47;;;6.44;100.00
47897;BME280;39629;51.400;5.494;2023-05-19T04:34:24;102419.94;;;6.44;100.00
47897;BME280;39629;51.400;5.494;2023-05-19T04:39:29;102424.72;;;6.55;100.00
47897;BME280;39629;51.400;5.494;2023-05-19T04:44:31;102430.44;;;6.67;100.00
47897;BME280;39629;51.400;5.494;2023-05-19T04:49:35;102432.91;;;6.87;100.00
47897;BME280;39629;51.400;5.494;2023-05-19T04:54:39;102424.41;;;7.65;100.00
47897;BME280;39629;51.400;5.494;2023-05-19T04:59:41;102427.84;;;8.15;100.00
47897;BME280;39629;51.400;5.494;2023-05-19T05:04:45;102415.88;;;8.81;100.00
47897;BME280;39629;51.400;5.494;2023-05-19T05:09:47;102411.56;;;9.12;100.00
47897;BME280;39629;51.400;5.494;2023-05-19T05:14:50;102415.94;;;9.45;100.00
47897;BME280;39629;51.400;5.494;2023-05-19T05:19:53;102424.31;;;10.34;100.00
47897;BME280;39629;51.400;5.494;2023-05-19T05:24:56;102419.09;;;10.73;100.00
47897;BME280;39629;51.400;5.494;2023-05-19T05:29:57;102416.78;;;11.32;100.00
47897;BME280;39629;51.400;5.494;2023-05-19T05:35:02;102421.56;;;11.07;100.00
47897;BME280;39629;51.400;5.494;2023-05-19T05:40:06;102418.13;;;10.71;100.00
47897;BME280;39629;51.400;5.494;2023-05-19T05:45:10;102422.66;;;10.77;100.00
47897;BME280;39629;51.400;5.494;2023-05-19T05:50:14;102424.31;;;11.13;100.00
47897;BME280;39629;51.400;5.494;2023-05-19T05:55:17;102420.66;;;12.01;100.00
47897;BME280;39629;51.400;5.494;2023-05-19T06:00:19;102405.34;;;12.97;100.00
47897;BME280;39629;51.400;5.494;2023-05-19T06:05:27;102411.19;;;13.49;100.00
47897;BME280;39629;51.400;5.494;2023-05-19T06:10:30;102415.75;;;12.84;100.00
47897;BME280;39629;51.400;5.494;2023-05-19T06:15:32;102422.19;;;13.89;100.00
47897;BME280;39629;51.400;5.494;2023-05-19T06:20:44;102422.66;;;14.51;100.00
47897;BME280;39629;51.400;5.494;2023-05-19T06:25:46;102427.41;;;13.80;100.00
47897;BME280;39629;51.400;5.494;2023-05-19T06:30:48;102431.06;;;13.91;100.00
47897;BME280;39629;51.400;5.494;2023-05-19T06:36:01;102419.16;;;14.52;100.00
47897;BME280;39629;51.400;5.494;2023-05-19T06:41:04;102409.59;;;14.87;100.00
47897;BME280;39629;51.400;5.494;2023-05-19T06:46:05;102422.22;;;15.70;100.00
47897;BME280;39629;51.400;5.494;2023-05-19T06:51:08;102420.97;;;14.61;100.00
47897;BME280;39629;51.400;5.494;2023-05-19T06:56:12;102418.59;;;15.13;100.00
47897;BME280;39629;51.400;5.494;2023-05-19T07:01:14;102416.38;;;14.34;100.00
47897;BME280;39629;51.400;5.494;2023-05-19T07:06:22;102414.00;;;14.86;100.00
47897;BME280;39629;51.400;5.494;2023-05-19T07:11:25;102411.47;;;15.08;100.00
47897;BME280;39629;51.400;5.494;2023-05-19T07:16:27;102418.63;;;15.26;100.00
47897;BME280;39629;51.400;5.494;2023-05-19T07:21:31;102419.41;;;15.08;100.00
47897;BME280;39629;51.400;5.494;2023-05-19T07:26:32;102424.72;;;15.09;100.00
47897;BME280;39629;51.400;5.494;2023-05-19T07:31:34;102421.16;;;15.06;100.00
47897;BME280;39629;51.400;5.494;2023-05-19T07:36:37;102419.59;;;15.60;100.00
47897;BME280;39629;51.400;5.494;2023-05-19T07:41:38;102415.84;;;14.96;100.00
47897;BME280;39629;51.400;5.494;2023-05-19T07:46:40;102414.63;;;14.36;100.00
47897;BME280;39629;51.400;5.494;2023-05-19T07:51:43;102422.22;;;15.54;100.00
47897;BME280;39629;51.400;5.494;2023-05-19T07:56:44;102419.56;;;15.46;100.00
47897;BME280;39629;51.400;5.494;2023-05-19T08:01:46;102409.88;;;16.01;100.00
47897;BME280;39629;51.400;5.494;2023-05-19T08:06:49;102405.44;;;16.12;100.00
47897;BME280;39629;51.400;5.494;2023-05-19T08:11:51;102400.88;;;16.78;100.00
47897;BME280;39629;51.400;5.494;2023-05-19T08:16:53;102400.44;;;17.63;100.00
47897;BME280;39629;51.400;5.494;2023-05-19T08:21:56;102393.25;;;17.76;100.00
47897;BME280;39629;51.400;5.494;2023-05-19T08:27:00;102378.81;;;18.03;100.00
47897;BME280;39629;51.400;5.494;2023-05-19T08:32:01;102372.13;;;18.49;100.00
47897;BME280;39629;51.400;5.494;2023-05-19T08:37:05;102370.72;;;18.93;100.00
47897;BME280;39629;51.400;5.494;2023-05-19T08:42:07;102361.19;;;18.73;92.45
47897;BME280;39629;51.400;5.494;2023-05-19T08:47:09;102356.91;;;18.62;96.67
47897;BME280;39629;51.400;5.494;2023-05-19T08:52:16;102348.91;;;19.26;81.98
47897;BME280;39629;51.400;5.494;2023-05-19T08:57:20;102351.56;;;19.27;65.78
47897;BME280;39629;51.400;5.494;2023-05-19T09:02:23;102347.72;;;20.48;65.69
47897;BME280;39629;51.400;5.494;2023-05-19T09:07:27;102337.06;;;19.47;56.97
47897;BME280;39629;51.400;5.494;2023-05-19T09:12:29;102330.88;;;20.85;45.79
47897;BME280;39629;51.400;5.494;2023-05-19T09:17:31;102322.31;;;20.22;43.20
47897;BME280;39629;51.400;5.494;2023-05-19T09:22:39;102316.75;;;20.38;38.88
47897;BME280;39629;51.400;5.494;2023-05-19T09:27:41;102322.00;;;19.43;38.89
47897;BME280;39629;51.400;5.494;2023-05-19T09:32:42;102305.13;;;20.37;38.23
47897;BME280;39629;51.400;5.494;2023-05-19T09:37:46;102308.78;;;19.85;39.22
47897;BME280;39629;51.400;5.494;2023-05-19T09:42:47;102308.97;;;20.24;39.39
47897;BME280;39629;51.400;5.494;2023-05-19T09:47:49;102308.75;;;19.88;38.35
47897;BME280;39629;51.400;5.494;2023-05-19T09:52:52;102314.16;;;21.15;36.09
47897;BME280;39629;51.400;5.494;2023-05-19T09:57:54;102304.78;;;20.09;37.13
47897;BME280;39629;51.400;5.494;2023-05-19T10:02:56;102316.34;;;21.71;34.81
47897;BME280;39629;51.400;5.494;2023-05-19T10:08:00;102316.75;;;19.33;37.48
47897;BME280;39629;51.400;5.494;2023-05-19T10:13:02;102309.75;;;19.81;36.33
47897;BME280;39629;51.400;5.494;2023-05-19T10:18:06;102306.06;;;20.79;35.99
47897;BME280;39629;51.400;5.494;2023-05-19T10:23:10;102299.53;;;20.50;34.11
47897;BME280;39629;51.400;5.494;2023-05-19T10:28:13;102305.78;;;21.30;37.10
47897;BME280;39629;51.400;5.494;2023-05-19T10:33:18;102297.78;;;20.89;35.32
47897;BME280;39629;51.400;5.494;2023-05-19T10:38:30;102289.03;;;21.22;35.79
47897;BME280;39629;51.400;5.494;2023-05-19T10:43:43;102282.59;;;21.29;36.31
47897;BME280;39629;51.400;5.494;2023-05-19T10:48:47;102283.91;;;20.31;36.16
47897;BME280;39629;51.400;5.494;2023-05-19T10:53:50;102280.91;;;20.86;35.11
47897;BME280;39629;51.400;5.494;2023-05-19T10:58:53;102275.72;;;20.80;36.25
47897;BME280;39629;51.400;5.494;2023-05-19T11:03:55;102286.00;;;20.12;35.74
47897;BME280;39629;51.400;5.494;2023-05-19T11:09:04;102283.06;;;20.68;36.33
47897;BME280;39629;51.400;5.494;2023-05-19T11:14:11;102283.00;;;20.29;36.70
47897;BME280;39629;51.400;5.494;2023-05-19T11:19:24;102279.31;;;20.79;37.44
47897;BME280;39629;51.400;5.494;2023-05-19T11:24:37;102265.50;;;21.35;36.31
47897;BME280;39629;51.400;5.494;2023-05-19T11:29:40;102275.19;;;20.20;40.10
47897;BME280;39629;51.400;5.494;2023-05-19T11:34:43;102266.41;;;21.68;35.55
47897;BME280;39629;51.400;5.494;2023-05-19T11:39:46;102261.44;;;21.20;34.13
47897;BME280;39629;51.400;5.494;2023-05-19T11:44:48;102264.78;;;20.50;36.01
47897;BME280;39629;51.400;5.494;2023-05-19T11:49:50;102255.50;;;21.04;36.49
47897;BME280;39629;51.400;5.494;2023-05-19T11:54:53;102252.28;;;21.28;38.73
47897;BME280;39629;51.400;5.494;2023-05-19T11:59:56;102244.69;;;21.08;36.41
47897;BME280;39629;51.400;5.494;2023-05-19T12:04:57;102233.75;;;21.19;35.68
47897;BME280;39629;51.400;5.494;2023-05-19T12:10:00;102228.50;;;21.82;39.09
47897;BME280;39629;51.400;5.494;2023-05-19T12:15:04;102227.03;;;21.01;35.69
47897;BME280;39629;51.400;5.494;2023-05-19T12:20:06;102223.72;;;21.62;36.86
47897;BME280;39629;51.400;5.494;2023-05-19T12:25:09;102227.50;;;21.20;36.36
47897;BME280;39629;51.400;5.494;2023-05-19T12:30:11;102229.31;;;20.81;35.32
47897;BME280;39629;51.400;5.494;2023-05-19T12:35:13;102219.66;;;21.11;34.98
47897;BME280;39629;51.400;5.494;2023-05-19T12:40:16;102215.75;;;21.92;37.09
47897;BME280;39629;51.400;5.494;2023-05-19T12:45:19;102198.53;;;22.89;37.21
47897;BME280;39629;51.400;5.494;2023-05-19T12:50:28;102208.31;;;21.37;34.75
47897;BME280;39629;51.400;5.494;2023-05-19T12:55:37;102193.13;;;21.38;34.61
47897;BME280;39629;51.400;5.494;2023-05-19T13:00:40;102185.50;;;22.18;34.67
47897;BME280;39629;51.400;5.494;2023-05-19T13:05:44;102192.56;;;21.91;33.08
47897;BME280;39629;51.400;5.494;2023-05-19T13:10:47;102184.53;;;21.58;35.02
47897;BME280;39629;51.400;5.494;2023-05-19T13:15:49;102191.38;;;21.68;34.68
47897;BME280;39629;51.400;5.494;2023-05-19T13:20:51;102171.03;;;21.94;34.36
47897;BME280;39629;51.400;5.494;2023-05-19T13:25:54;102171.03;;;22.25;33.76
47897;BME280;39629;51.400;5.494;2023-05-19T13:30:56;102162.06;;;22.55;36.49
47897;BME280;39629;51.400;5.494;2023-05-19T13:35:58;102162.75;;;22.61;33.92
47897;BME280;39629;51.400;5.494;2023-05-19T13:41:01;102160.97;;;22.02;33.20
47897;BME280;39629;51.400;5.494;2023-05-19T13:46:03;102165.25;;;22.66;32.99
47897;BME280;39629;51.400;5.494;2023-05-19T13:51:05;102162.97;;;21.94;34.24
47897;BME280;39629;51.400;5.494;2023-05-19T13:56:08;102149.41;;;22.58;36.44
47897;BME280;39629;51.400;5.494;2023-05-19T14:01:09;102153.47;;;22.43;34.81
47897;BME280;39629;51.400;5.494;2023-05-19T14:06:11;102153.97;;;21.65;34.82
47897;BME280;39629;51.400;5.494;2023-05-19T14:11:18;102164.31;;;22.10;35.42
47897;BME280;39629;51.400;5.494;2023-05-19T14:16:20;102139.97;;;21.22;34.49
47897;BME280;39629;51.400;5.494;2023-05-19T14:21:22;102149.91;;;21.19;35.72
47897;BME280;39629;51.400;5.494;2023-05-19T14:26:25;102146.75;;;21.69;33.84
47897;BME280;39629;51.400;5.494;2023-05-19T14:31:26;102133.16;;;21.75;34.74
47897;BME280;39629;51.400;5.494;2023-05-19T14:36:28;102142.88;;;22.10;35.19
47897;BME280;39629;51.400;5.494;2023-05-19T14:41:31;102141.44;;;21.97;34.41
47897;BME280;39629;51.400;5.494;2023-05-19T14:46:33;102139.44;;;22.05;33.88
47897;BME280;39629;51.400;5.494;2023-05-19T14:51:35;102134.03;;;21.44;34.86
47897;BME280;39629;51.400;5.494;2023-05-19T14:56:38;102129.22;;;22.18;35.32
47897;BME280;39629;51.400;5.494;2023-05-19T15:01:39;102131.09;;;21.85;34.44
47897;BME280;39629;51.400;5.494;2023-05-19T15:06:41;102133.06;;;22.09;33.69
47897;BME280;39629;51.400;5.494;2023-05-19T15:11:44;102117.84;;;20.81;34.40
47897;BME280;39629;51.400;5.494;2023-05-19T15:16:45;102116.66;;;21.89;34.33
47897;BME280;39629;51.400;5.494;2023-05-19T15:21:47;102118.69;;;21.81;34.69
47897;BME280;39629;51.400;5.494;2023-05-19T15:26:51;102117.25;;;21.37;34.50
47897;BME280;39629;51.400;5.494;2023-05-19T15:31:53;102115.66;;;21.63;36.51
47897;BME280;39629;51.400;5.494;2023-05-19T15:36:55;102112.16;;;20.93;35.67
47897;BME280;39629;51.400;5.494;2023-05-19T15:41:58;102109.94;;;21.09;36.05
47897;BME280;39629;51.400;5.494;2023-05-19T15:46:59;102100.81;;;20.84;35.26
47897;BME280;39629;51.400;5.494;2023-05-19T15:52:02;102110.72;;;21.15;36.63
47897;BME280;39629;51.400;5.494;2023-05-19T15:57:05;102102.44;;;21.25;37.11
47897;BME280;39629;51.400;5.494;2023-05-19T16:02:07;102103.47;;;21.20;37.07
47897;BME280;39629;51.400;5.494;2023-05-19T16:07:08;102095.81;;;20.70;37.49
47897;BME280;39629;51.400;5.494;2023-05-19T16:12:11;102099.09;;;20.45;36.30
47897;BME280;39629;51.400;5.494;2023-05-19T16:17:13;102097.00;;;20.19;37.59
47897;BME280;39629;51.400;5.494;2023-05-19T16:22:14;102087.84;;;20.29;37.15
47897;BME280;39629;51.400;5.494;2023-05-19T16:27:18;102099.47;;;20.28;36.37
47897;BME280;39629;51.400;5.494;2023-05-19T16:32:20;102090.53;;;19.90;37.26
47897;BME280;39629;51.400;5.494;2023-05-19T16:37:21;102087.16;;;20.21;37.88
47897;BME280;39629;51.400;5.494;2023-05-19T16:42:24;102077.44;;;19.78;37.28
47897;BME280;39629;51.400;5.494;2023-05-19T16:47:26;102087.06;;;19.43;38.05
47897;BME280;39629;51.400;5.494;2023-05-19T16:52:27;102080.09;;;19.32;38.04
47897;BME280;39629;51.400;5.494;2023-05-19T16:57:30;102080.50;;;19.59;37.96
47897;BME280;39629;51.400;5.494;2023-05-19T17:02:32;102074.94;;;19.24;38.20
47897;BME280;39629;51.400;5.494;2023-05-19T17:07:34;102071.59;;;19.60;39.92
47897;BME280;39629;51.400;5.494;2023-05-19T17:12:36;102081.19;;;19.22;38.82
47897;BME280;39629;51.400;5.494;2023-05-19T17:17:38;102082.06;;;19.24;38.19
47897;BME280;39629;51.400;5.494;2023-05-19T17:22:39;102076.16;;;19.06;38.81
47897;BME280;39629;51.400;5.494;2023-05-19T17:27:42;102073.78;;;18.91;39.21
47897;BME280;39629;51.400;5.494;2023-05-19T17:32:44;102069.38;;;18.88;39.07
47897;BME280;39629;51.400;5.494;2023-05-19T17:37:46;102070.09;;;18.98;39.96
47897;BME280;39629;51.400;5.494;2023-05-19T17:42:48;102069.47;;;18.82;40.04
47897;BME280;39629;51.400;5.494;2023-05-19T17:47:50;102071.53;;;18.66;40.29
47897;BME280;39629;51.400;5.494;2023-05-19T17:52:52;102076.81;;;18.69;40.81
47897;BME280;39629;51.400;5.494;2023-05-19T17:57:57;102080.59;;;18.54;40.31
47897;BME280;39629;51.400;5.494;2023-05-19T18:02:59;102076.34;;;18.44;41.03
47897;BME280;39629;51.400;5.494;2023-05-19T18:08:01;102078.16;;;18.39;40.66
47897;BME280;39629;51.400;5.494;2023-05-19T18:13:09;102080.16;;;18.25;41.32
47897;BME280;39629;51.400;5.494;2023-05-19T18:18:10;102087.56;;;18.04;42.63
47897;BME280;39629;51.400;5.494;2023-05-19T18:23:12;102083.31;;;17.92;42.00
47897;BME280;39629;51.400;5.494;2023-05-19T18:28:15;102091.47;;;17.78;42.27
47897;BME280;39629;51.400;5.494;2023-05-19T18:33:16;102089.84;;;17.65;42.46
47897;BME280;39629;51.400;5.494;2023-05-19T18:38:18;102097.09;;;17.50;42.77
47897;BME280;39629;51.400;5.494;2023-05-19T18:43:24;102098.22;;;17.28;44.21
47897;BME280;39629;51.400;5.494;2023-05-19T18:48:25;102098.41;;;17.11;45.88
47897;BME280;39629;51.400;5.494;2023-05-19T18:53:27;102098.56;;;16.95;45.12
47897;BME280;39629;51.400;5.494;2023-05-19T18:58:30;102112.94;;;16.71;46.24
47897;BME280;39629;51.400;5.494;2023-05-19T19:03:32;102116.56;;;16.61;46.03
47897;BME280;39629;51.400;5.494;2023-05-19T19:08:33;102121.94;;;16.50;47.51
47897;BME280;39629;51.400;5.494;2023-05-19T19:13:36;102120.31;;;16.27;47.53
47897;BME280;39629;51.400;5.494;2023-05-19T19:18:38;102134.56;;;16.05;49.03
47897;BME280;39629;51.400;5.494;2023-05-19T19:23:40;102139.94;;;15.95;50.86
47897;BME280;39629;51.400;5.494;2023-05-19T19:28:43;102140.88;;;15.82;49.99
47897;BME280;39629;51.400;5.494;2023-05-19T19:33:45;102148.91;;;15.65;50.65
47897;BME280;39629;51.400;5.494;2023-05-19T19:38:47;102150.72;;;15.47;51.74
47897;BME280;39629;51.400;5.494;2023-05-19T19:43:50;102151.63;;;15.31;51.74
47897;BME280;39629;51.400;5.494;2023-05-19T19:48:55;102156.06;;;15.16;53.13
47897;BME280;39629;51.400;5.494;2023-05-19T19:53:57;102162.22;;;14.98;53.91
47897;BME280;39629;51.400;5.494;2023-05-19T19:59:00;102169.31;;;14.82;54.03
47897;BME280;39629;51.400;5.494;2023-05-19T20:04:01;102170.13;;;14.61;56.49
47897;BME280;39629;51.400;5.494;2023-05-19T20:09:03;102179.00;;;14.62;55.36
47897;BME280;39629;51.400;5.494;2023-05-19T20:14:07;102178.94;;;14.45;57.25
47897;BME280;39629;51.400;5.494;2023-05-19T20:19:09;102181.56;;;14.34;56.75
47897;BME280;39629;51.400;5.494;2023-05-19T20:24:11;102178.88;;;14.22;57.52
47897;BME280;39629;51.400;5.494;2023-05-19T20:29:14;102190.28;;;14.07;58.93
47897;BME280;39629;51.400;5.494;2023-05-19T20:34:16;102185.03;;;14.16;57.31
47897;BME280;39629;51.400;5.494;2023-05-19T20:39:17;102186.66;;;13.86;60.91
47897;BME280;39629;51.400;5.494;2023-05-19T20:44:20;102182.19;;;13.76;62.31
47897;BME280;39629;51.400;5.494;2023-05-19T20:49:22;102177.75;;;13.78;61.80
47897;BME280;39629;51.400;5.494;2023-05-19T20:54:23;102190.06;;;13.71;62.09
47897;BME280;39629;51.400;5.494;2023-05-19T20:59:26;102192.63;;;13.54;64.10
47897;BME280;39629;51.400;5.494;2023-05-19T21:04:28;102183.75;;;13.49;63.88
47897;BME280;39629;51.400;5.494;2023-05-19T21:09:29;102199.69;;;13.57;64.05
47897;BME280;39629;51.400;5.494;2023-05-19T21:14:32;102196.97;;;13.46;65.28
47897;BME280;39629;51.400;5.494;2023-05-19T21:19:35;102196.13;;;13.50;65.03
47897;BME280;39629;51.400;5.494;2023-05-19T21:24:37;102197.72;;;13.29;67.97
47897;BME280;39629;51.400;5.494;2023-05-19T21:29:40;102197.72;;;13.29;68.10
47897;BME280;39629;51.400;5.494;2023-05-19T21:34:41;102210.09;;;13.31;66.37
47897;BME280;39629;51.400;5.494;2023-05-19T21:39:44;102192.59;;;13.51;65.76
47897;BME280;39629;51.400;5.494;2023-05-19T21:44:47;102209.03;;;13.11;68.54
47897;BME280;39629;51.400;5.494;2023-05-19T21:49:48;102206.50;;;13.25;67.90
47897;BME280;39629;51.400;5.494;2023-05-19T21:54:50;102204.69;;;13.17;67.38
47897;BME280;39629;51.400;5.494;2023-05-19T21:59:53;102204.59;;;13.06;69.83
47897;BME280;39629;51.400;5.494;2023-05-19T22:04:55;102208.19;;;13.17;69.42
47897;BME280;39629;51.400;5.494;2023-05-19T22:09:56;102204.69;;;13.15;67.77
47897;BME280;39629;51.400;5.494;2023-05-19T22:14:59;102211.53;;;12.94;70.06
47897;BME280;39629;51.400;5.494;2023-05-19T22:20:02;102201.78;;;12.86;71.00
47897;BME280;39629;51.400;5.494;2023-05-19T22:25:05;102202.72;;;12.92;70.64
47897;BME280;39629;51.400;5.494;2023-05-19T22:30:08;102207.09;;;12.89;71.37
47897;BME280;39629;51.400;5.494;2023-05-19T22:35:10;102204.31;;;12.76;72.71
47897;BME280;39629;51.400;5.494;2023-05-19T22:40:12;102201.69;;;12.80;71.47
47897;BME280;39629;51.400;5.494;2023-05-19T22:45:15;102192.06;;;12.83;72.51
47897;BME280;39629;51.400;5.494;2023-05-19T22:50:17;102196.41;;;12.80;71.52
47897;BME280;39629;51.400;5.494;2023-05-19T22:55:19;102202.53;;;12.74;72.31
47897;BME280;39629;51.400;5.494;2023-05-19T23:00:22;102205.13;;;12.69;73.60
47897;BME280;39629;51.400;5.494;2023-05-19T23:05:24;102200.66;;;12.60;72.98
47897;BME280;39629;51.400;5.494;2023-05-19T23:10:25;102202.47;;;12.65;72.65
47897;BME280;39629;51.400;5.494;2023-05-19T23:15:28;102202.41;;;12.63;72.56
47897;BME280;39629;51.400;5.494;2023-05-19T23:20:30;102192.78;;;12.68;72.69
47897;BME280;39629;51.400;5.494;2023-05-19T23:25:33;102197.09;;;12.60;73.21
47897;BME280;39629;51.400;5.494;2023-05-19T23:30:37;102204.06;;;12.53;73.68
47897;BME280;39629;51.400;5.494;2023-05-19T23:35:38;102194.56;;;12.69;73.60
47897;BME280;39629;51.400;5.494;2023-05-19T23:40:40;102197.81;;;12.45;78.75
47897;BME280;39629;51.400;5.494;2023-05-19T23:45:43;102200.53;;;12.51;76.69
47897;BME280;39629;51.400;5.494;2023-05-19T23:50:44;102197.91;;;12.53;77.95
47897;BME280;39629;51.400;5.494;2023-05-19T23:55:46;102198.75;;;12.47;79.39
